createdAt,value
2018-09-18T00:09:16.464Z,16.44
2018-09-18T00:20:19.120Z,16.34
2018-09-18T00:31:20.343Z,16.29
2018-09-18T00:42:19.167Z,16.27
2018-09-18T00:53:16.433Z,16.10
2018-09-18T01:04:14.728Z,16.04
2018-09-18T01:15:11.784Z,16.01
2018-09-18T01:26:09.709Z,15.86
2018-09-18T01:37:08.428Z,15.78
2018-09-18T01:48:06.445Z,15.66
2018-09-18T01:59:03.997Z,15.60
2018-09-18T02:10:03.526Z,15.57
2018-09-18T02:21:03.568Z,15.42
2018-09-18T02:32:02.881Z,15.35
2018-09-18T02:43:04.040Z,15.24
2018-09-18T02:54:07.795Z,15.21
2018-09-18T03:05:09.227Z,15.18
2018-09-18T03:16:11.864Z,15.20
2018-09-18T03:27:12.372Z,14.94
2018-09-18T03:38:10.924Z,14.94
2018-09-18T03:49:11.822Z,14.93
2018-09-18T04:00:10.039Z,14.83
2018-09-18T04:11:07.813Z,14.74
2018-09-18T04:22:08.464Z,14.69
2018-09-18T04:33:03.159Z,14.67
2018-09-18T04:44:00.481Z,14.64
2018-09-18T04:54:51.934Z,14.67
2018-09-18T05:05:55.207Z,14.78
2018-09-18T05:16:55.215Z,14.80
2018-09-18T05:27:59.061Z,15.02
2018-09-18T05:38:59.226Z,15.33
2018-09-18T05:50:01.636Z,15.53
2018-09-18T06:01:03.947Z,15.83
2018-09-18T06:12:08.730Z,16.15
2018-09-18T06:23:09.766Z,16.62
2018-09-18T06:34:13.668Z,16.96
2018-09-18T06:45:13.167Z,17.40
2018-09-18T06:56:13.333Z,17.76
2018-09-18T07:07:13.320Z,18.18
2018-09-18T07:18:12.555Z,18.53
2018-09-18T07:29:14.375Z,18.97
2018-09-18T07:40:15.774Z,19.33
2018-09-18T07:51:20.370Z,19.80
2018-09-18T08:02:20.165Z,20.19
2018-09-18T08:13:24.898Z,20.66
2018-09-18T08:24:26.390Z,20.96
2018-09-18T08:35:28.205Z,21.41
2018-09-18T08:46:30.748Z,21.91
2018-09-18T08:57:31.319Z,22.53
2018-09-18T09:08:30.917Z,22.59
2018-09-18T09:19:30.416Z,22.89
2018-09-18T09:30:33.409Z,23.09
2018-09-18T09:41:33.464Z,23.61
2018-09-18T09:52:36.791Z,24.08
2018-09-18T10:03:35.636Z,24.17
2018-09-18T10:14:37.978Z,24.90
2018-09-18T10:25:38.298Z,25.16
2018-09-18T10:36:39.435Z,25.05
2018-09-18T10:47:43.762Z,25.68
2018-09-18T10:58:41.788Z,26.46
2018-09-18T11:09:41.758Z,27.16
2018-09-18T11:20:39.807Z,26.04
2018-09-18T11:31:42.205Z,25.93
2018-09-18T11:42:42.222Z,26.55
2018-09-18T11:53:42.302Z,26.49
2018-09-18T12:04:40.503Z,26.58
2018-09-18T12:15:40.275Z,27.17
2018-09-18T12:26:42.907Z,27.38
2018-09-18T12:37:45.813Z,27.05
2018-09-18T12:48:40.584Z,27.14
2018-09-18T12:59:39.410Z,28.01
2018-09-18T13:10:37.037Z,27.88
2018-09-18T13:21:35.799Z,28.61
2018-09-18T13:32:36.400Z,28.16
2018-09-18T13:43:32.913Z,26.18
2018-09-18T13:54:35.145Z,27.83
2018-09-18T14:05:39.128Z,27.60
2018-09-18T14:16:36.544Z,26.64
2018-09-18T14:27:32.897Z,28.04
2018-09-18T14:38:20.665Z,26.35
2018-09-18T14:49:16.007Z,25.64
2018-09-18T15:00:11.660Z,25.32
2018-09-18T15:11:07.670Z,24.98
2018-09-18T15:22:04.103Z,24.82
2018-09-18T15:32:44.555Z,23.83
2018-09-18T15:43:33.008Z,23.70
2018-09-18T15:54:25.855Z,23.68
2018-09-18T16:05:24.560Z,23.14
2018-09-18T16:16:17.722Z,22.89
2018-09-18T16:27:13.485Z,22.41
2018-09-18T16:38:08.345Z,21.78
2018-09-18T16:49:03.833Z,21.11
2018-09-18T16:59:58.325Z,20.64
2018-09-18T17:10:54.342Z,20.27
2018-09-18T17:21:45.266Z,20.26
2018-09-18T17:32:37.942Z,20.01
2018-09-18T17:43:32.852Z,19.61
2018-09-18T17:54:33.428Z,19.60
2018-09-18T18:05:24.556Z,19.60
2018-09-18T18:16:19.333Z,19.64
2018-09-18T18:27:20.643Z,19.61
2018-09-18T18:38:20.704Z,19.46
2018-09-18T18:49:13.752Z,19.11
2018-09-18T19:00:08.251Z,18.64
2018-09-18T19:11:03.915Z,18.29
2018-09-18T19:21:53.817Z,18.00
2018-09-18T19:32:51.741Z,18.03
2018-09-18T19:43:46.262Z,17.71
2018-09-18T19:54:41.800Z,17.44
2018-09-18T20:05:38.779Z,17.32
2018-09-18T20:16:36.722Z,17.15
2018-09-18T20:27:38.202Z,17.05
2018-09-18T20:38:40.026Z,17.05
2018-09-18T20:49:35.651Z,16.96
2018-09-18T21:00:31.776Z,16.95
2018-09-18T21:11:26.575Z,16.73
2018-09-18T21:22:27.643Z,16.55
2018-09-18T21:33:24.116Z,16.70
2018-09-18T21:44:24.566Z,16.47
2018-09-18T21:55:25.615Z,16.30
2018-09-18T22:06:23.258Z,16.14
2018-09-18T22:17:22.537Z,15.99
2018-09-18T22:28:15.203Z,15.89
2018-09-18T22:39:15.200Z,15.76
2018-09-18T22:50:12.063Z,15.78
2018-09-18T23:01:12.927Z,15.64
2018-09-18T23:12:14.643Z,15.52
2018-09-18T23:23:13.654Z,15.49
2018-09-18T23:34:09.808Z,15.46
2018-09-18T23:45:12.065Z,15.38
2018-09-18T23:56:13.118Z,15.26
